sensor_id;sensor_type;location;lat;lon;timestamp;P1;durP1;ratioP1;P2;durP2;ratioP2
34928;SDS011;21133;48.048;7.724;2023-06-10T00:02:28;6.30;;;3.30;;
34928;SDS011;21133;48.048;7.724;2023-06-10T00:04:54;4.03;;;3.67;;
34928;SDS011;21133;48.048;7.724;2023-06-10T00:07:22;3.77;;;3.67;;
34928;SDS011;21133;48.048;7.724;2023-06-10T00:09:47;4.37;;;4.17;;
34928;SDS011;21133;48.048;7.724;2023-06-10T00:12:13;3.90;;;3.63;;
34928;SDS011;21133;48.048;7.724;2023-06-10T00:14:41;3.83;;;3.57;;
34928;SDS011;21133;48.048;7.724;2023-06-10T00:17:07;3.53;;;3.33;;
34928;SDS011;21133;48.048;7.724;2023-06-10T00:19:36;3.93;;;3.63;;
34928;SDS011;21133;48.048;7.724;2023-06-10T00:22:06;3.77;;;3.47;;
34928;SDS011;21133;48.048;7.724;2023-06-10T00:24:32;4.00;;;3.70;;
34928;SDS011;21133;48.048;7.724;2023-06-10T00:26:58;2.90;;;2.90;;
34928;SDS011;21133;48.048;7.724;2023-06-10T00:29:24;3.80;;;3.60;;
34928;SDS011;21133;48.048;7.724;2023-06-10T00:31:50;3.87;;;3.70;;
34928;SDS011;21133;48.048;7.724;2023-06-10T00:34:18;4.23;;;4.00;;
34928;SDS011;21133;48.048;7.724;2023-06-10T00:36:44;3.97;;;3.77;;
34928;SDS011;21133;48.048;7.724;2023-06-10T00:39:10;3.20;;;3.10;;
34928;SDS011;21133;48.048;7.724;2023-06-10T00:41:36;5.00;;;4.10;;
34928;SDS011;21133;48.048;7.724;2023-06-10T00:44:02;3.40;;;3.30;;
34928;SDS011;21133;48.048;7.724;2023-06-10T00:46:28;4.23;;;4.03;;
34928;SDS011;21133;48.048;7.724;2023-06-10T00:48:57;5.57;;;3.70;;
34928;SDS011;21133;48.048;7.724;2023-06-10T00:51:23;3.70;;;3.60;;
34928;SDS011;21133;48.048;7.724;2023-06-10T00:53:50;3.70;;;3.50;;
34928;SDS011;21133;48.048;7.724;2023-06-10T00:56:16;4.07;;;3.93;;
34928;SDS011;21133;48.048;7.724;2023-06-10T00:58:42;3.77;;;3.53;;
34928;SDS011;21133;48.048;7.724;2023-06-10T01:01:08;4.27;;;3.83;;
34928;SDS011;21133;48.048;7.724;2023-06-10T01:03:35;4.33;;;4.13;;
34928;SDS011;21133;48.048;7.724;2023-06-10T01:06:17;4.00;;;3.73;;
34928;SDS011;21133;48.048;7.724;2023-06-10T01:08:46;6.63;;;4.07;;
34928;SDS011;21133;48.048;7.724;2023-06-10T01:11:21;4.47;;;4.23;;
34928;SDS011;21133;48.048;7.724;2023-06-10T01:13:47;4.20;;;3.80;;
34928;SDS011;21133;48.048;7.724;2023-06-10T01:16:16;3.63;;;3.53;;
34928;SDS011;21133;48.048;7.724;2023-06-10T01:18:43;3.70;;;3.40;;
34928;SDS011;21133;48.048;7.724;2023-06-10T01:21:12;4.30;;;4.00;;
34928;SDS011;21133;48.048;7.724;2023-06-10T01:23:38;3.70;;;3.60;;
34928;SDS011;21133;48.048;7.724;2023-06-10T01:26:06;4.20;;;3.50;;
34928;SDS011;21133;48.048;7.724;2023-06-10T01:28:51;3.53;;;3.33;;
34928;SDS011;21133;48.048;7.724;2023-06-10T01:33:47;3.90;;;3.70;;
34928;SDS011;21133;48.048;7.724;2023-06-10T01:36:15;3.40;;;3.30;;
34928;SDS011;21133;48.048;7.724;2023-06-10T01:38:45;3.60;;;3.40;;
34928;SDS011;21133;48.048;7.724;2023-06-10T01:41:12;4.40;;;4.07;;
34928;SDS011;21133;48.048;7.724;2023-06-10T01:43:39;3.60;;;3.50;;
34928;SDS011;21133;48.048;7.724;2023-06-10T01:46:05;4.17;;;4.07;;
34928;SDS011;21133;48.048;7.724;2023-06-10T01:48:32;4.93;;;4.23;;
34928;SDS011;21133;48.048;7.724;2023-06-10T01:50:58;3.63;;;3.53;;
34928;SDS011;21133;48.048;7.724;2023-06-10T01:53:24;3.77;;;3.67;;
34928;SDS011;21133;48.048;7.724;2023-06-10T01:55:50;3.77;;;3.57;;
34928;SDS011;21133;48.048;7.724;2023-06-10T01:58:17;5.40;;;3.33;;
34928;SDS011;21133;48.048;7.724;2023-06-10T02:00:43;3.83;;;3.70;;
34928;SDS011;21133;48.048;7.724;2023-06-10T02:03:09;3.73;;;3.03;;
34928;SDS011;21133;48.048;7.724;2023-06-10T02:05:35;3.80;;;3.70;;
34928;SDS011;21133;48.048;7.724;2023-06-10T02:08:01;3.90;;;3.80;;
34928;SDS011;21133;48.048;7.724;2023-06-10T02:10:27;3.30;;;3.23;;
34928;SDS011;21133;48.048;7.724;2023-06-10T02:12:53;3.60;;;3.40;;
34928;SDS011;21133;48.048;7.724;2023-06-10T02:15:19;3.87;;;3.67;;
34928;SDS011;21133;48.048;7.724;2023-06-10T02:17:45;3.37;;;3.03;;
34928;SDS011;21133;48.048;7.724;2023-06-10T02:20:13;3.60;;;3.50;;
34928;SDS011;21133;48.048;7.724;2023-06-10T02:22:40;3.60;;;3.50;;
34928;SDS011;21133;48.048;7.724;2023-06-10T02:25:06;3.70;;;3.60;;
34928;SDS011;21133;48.048;7.724;2023-06-10T02:27:32;4.13;;;4.03;;
34928;SDS011;21133;48.048;7.724;2023-06-10T02:29:58;4.57;;;4.30;;
34928;SDS011;21133;48.048;7.724;2023-06-10T02:32:24;3.30;;;3.10;;
34928;SDS011;21133;48.048;7.724;2023-06-10T02:34:50;4.40;;;3.60;;
34928;SDS011;21133;48.048;7.724;2023-06-10T02:37:16;4.47;;;4.27;;
34928;SDS011;21133;48.048;7.724;2023-06-10T02:39:42;3.87;;;3.60;;
34928;SDS011;21133;48.048;7.724;2023-06-10T02:42:08;3.93;;;3.40;;
34928;SDS011;21133;48.048;7.724;2023-06-10T02:44:35;7.20;;;4.07;;
34928;SDS011;21133;48.048;7.724;2023-06-10T02:47:01;3.70;;;3.50;;
34928;SDS011;21133;48.048;7.724;2023-06-10T02:49:27;3.97;;;3.67;;
34928;SDS011;21133;48.048;7.724;2023-06-10T02:51:53;4.37;;;4.00;;
34928;SDS011;21133;48.048;7.724;2023-06-10T02:54:21;3.83;;;3.73;;
34928;SDS011;21133;48.048;7.724;2023-06-10T02:59:51;4.20;;;4.00;;
34928;SDS011;21133;48.048;7.724;2023-06-10T03:02:18;4.07;;;3.97;;
34928;SDS011;21133;48.048;7.724;2023-06-10T03:04:44;3.87;;;3.77;;
34928;SDS011;21133;48.048;7.724;2023-06-10T03:07:10;3.63;;;3.50;;
34928;SDS011;21133;48.048;7.724;2023-06-10T03:09:37;3.83;;;3.63;;
34928;SDS011;21133;48.048;7.724;2023-06-10T03:12:03;4.03;;;3.50;;
34928;SDS011;21133;48.048;7.724;2023-06-10T03:14:29;3.70;;;3.60;;
34928;SDS011;21133;48.048;7.724;2023-06-10T03:16:55;3.77;;;3.30;;
34928;SDS011;21133;48.048;7.724;2023-06-10T03:19:21;3.83;;;3.63;;
34928;SDS011;21133;48.048;7.724;2023-06-10T03:21:49;3.80;;;3.50;;
34928;SDS011;21133;48.048;7.724;2023-06-10T03:24:15;4.10;;;3.83;;
34928;SDS011;21133;48.048;7.724;2023-06-10T03:26:41;3.87;;;3.70;;
34928;SDS011;21133;48.048;7.724;2023-06-10T03:29:07;4.83;;;3.60;;
34928;SDS011;21133;48.048;7.724;2023-06-10T03:31:33;3.90;;;3.80;;
34928;SDS011;21133;48.048;7.724;2023-06-10T03:34:01;8.20;;;4.10;;
34928;SDS011;21133;48.048;7.724;2023-06-10T03:36:27;3.90;;;3.70;;
34928;SDS011;21133;48.048;7.724;2023-06-10T03:38:54;6.83;;;4.60;;
34928;SDS011;21133;48.048;7.724;2023-06-10T03:41:21;4.73;;;4.43;;
34928;SDS011;21133;48.048;7.724;2023-06-10T03:43:47;3.53;;;3.33;;
34928;SDS011;21133;48.048;7.724;2023-06-10T03:46:13;3.80;;;3.70;;
34928;SDS011;21133;48.048;7.724;2023-06-10T03:48:40;7.00;;;4.30;;
34928;SDS011;21133;48.048;7.724;2023-06-10T03:51:06;3.73;;;3.63;;
34928;SDS011;21133;48.048;7.724;2023-06-10T03:53:32;9.93;;;4.23;;
34928;SDS011;21133;48.048;7.724;2023-06-10T03:55:58;4.70;;;4.50;;
34928;SDS011;21133;48.048;7.724;2023-06-10T03:58:24;4.50;;;3.73;;
34928;SDS011;21133;48.048;7.724;2023-06-10T04:00:51;4.63;;;4.30;;
34928;SDS011;21133;48.048;7.724;2023-06-10T04:03:18;5.10;;;4.10;;
34928;SDS011;21133;48.048;7.724;2023-06-10T04:05:46;4.10;;;3.93;;
34928;SDS011;21133;48.048;7.724;2023-06-10T04:08:12;5.50;;;5.00;;
34928;SDS011;21133;48.048;7.724;2023-06-10T04:10:38;4.57;;;4.37;;
34928;SDS011;21133;48.048;7.724;2023-06-10T04:13:04;6.10;;;4.33;;
34928;SDS011;21133;48.048;7.724;2023-06-10T04:15:31;4.50;;;4.30;;
34928;SDS011;21133;48.048;7.724;2023-06-10T04:21:03;6.30;;;5.77;;
34928;SDS011;21133;48.048;7.724;2023-06-10T04:23:29;4.20;;;3.83;;
34928;SDS011;21133;48.048;7.724;2023-06-10T04:25:55;4.07;;;3.77;;
34928;SDS011;21133;48.048;7.724;2023-06-10T04:28:21;4.00;;;3.80;;
34928;SDS011;21133;48.048;7.724;2023-06-10T04:30:47;11.30;;;3.70;;
34928;SDS011;21133;48.048;7.724;2023-06-10T04:33:13;4.90;;;4.40;;
34928;SDS011;21133;48.048;7.724;2023-06-10T04:35:39;4.07;;;3.77;;
34928;SDS011;21133;48.048;7.724;2023-06-10T04:38:04;4.50;;;4.00;;
34928;SDS011;21133;48.048;7.724;2023-06-10T04:40:30;7.43;;;4.30;;
34928;SDS011;21133;48.048;7.724;2023-06-10T04:42:56;4.50;;;4.30;;
34928;SDS011;21133;48.048;7.724;2023-06-10T04:45:22;4.40;;;4.30;;
34928;SDS011;21133;48.048;7.724;2023-06-10T04:47:48;7.63;;;4.40;;
34928;SDS011;21133;48.048;7.724;2023-06-10T04:50:14;4.63;;;4.23;;
34928;SDS011;21133;48.048;7.724;2023-06-10T04:52:40;4.57;;;4.27;;
34928;SDS011;21133;48.048;7.724;2023-06-10T04:55:06;4.27;;;4.17;;
34928;SDS011;21133;48.048;7.724;2023-06-10T04:57:33;4.50;;;4.10;;
34928;SDS011;21133;48.048;7.724;2023-06-10T04:59:59;5.00;;;4.70;;
34928;SDS011;21133;48.048;7.724;2023-06-10T05:02:25;5.20;;;5.00;;
34928;SDS011;21133;48.048;7.724;2023-06-10T05:04:51;5.67;;;4.00;;
34928;SDS011;21133;48.048;7.724;2023-06-10T05:07:19;5.70;;;5.40;;
34928;SDS011;21133;48.048;7.724;2023-06-10T05:09:45;4.20;;;4.10;;
34928;SDS011;21133;48.048;7.724;2023-06-10T05:12:12;7.50;;;4.60;;
34928;SDS011;21133;48.048;7.724;2023-06-10T05:14:38;10.57;;;4.40;;
34928;SDS011;21133;48.048;7.724;2023-06-10T05:17:04;4.53;;;4.33;;
34928;SDS011;21133;48.048;7.724;2023-06-10T05:19:31;6.23;;;5.10;;
34928;SDS011;21133;48.048;7.724;2023-06-10T05:21:57;4.83;;;4.50;;
34928;SDS011;21133;48.048;7.724;2023-06-10T05:24:23;6.50;;;6.17;;
34928;SDS011;21133;48.048;7.724;2023-06-10T05:26:49;4.73;;;4.53;;
34928;SDS011;21133;48.048;7.724;2023-06-10T05:29:15;5.53;;;4.93;;
34928;SDS011;21133;48.048;7.724;2023-06-10T05:31:41;5.60;;;4.67;;
34928;SDS011;21133;48.048;7.724;2023-06-10T05:34:07;5.37;;;5.07;;
34928;SDS011;21133;48.048;7.724;2023-06-10T05:36:33;4.30;;;4.17;;
34928;SDS011;21133;48.048;7.724;2023-06-10T05:38:59;4.87;;;4.60;;
34928;SDS011;21133;48.048;7.724;2023-06-10T05:41:25;4.73;;;4.33;;
34928;SDS011;21133;48.048;7.724;2023-06-10T05:43:51;9.13;;;4.30;;
34928;SDS011;21133;48.048;7.724;2023-06-10T05:46:17;4.23;;;4.10;;
34928;SDS011;21133;48.048;7.724;2023-06-10T05:48:43;4.07;;;3.93;;
34928;SDS011;21133;48.048;7.724;2023-06-10T05:51:09;4.60;;;4.20;;
34928;SDS011;21133;48.048;7.724;2023-06-10T05:53:35;4.23;;;4.13;;
34928;SDS011;21133;48.048;7.724;2023-06-10T05:56:01;7.40;;;4.13;;
34928;SDS011;21133;48.048;7.724;2023-06-10T05:58:27;4.77;;;4.67;;
34928;SDS011;21133;48.048;7.724;2023-06-10T06:00:53;4.40;;;4.13;;
34928;SDS011;21133;48.048;7.724;2023-06-10T06:03:19;5.80;;;4.23;;
34928;SDS011;21133;48.048;7.724;2023-06-10T06:05:45;5.77;;;5.10;;
34928;SDS011;21133;48.048;7.724;2023-06-10T06:08:11;3.83;;;3.70;;
34928;SDS011;21133;48.048;7.724;2023-06-10T06:10:43;9.83;;;4.60;;
34928;SDS011;21133;48.048;7.724;2023-06-10T06:13:09;3.93;;;3.83;;
34928;SDS011;21133;48.048;7.724;2023-06-10T06:15:35;4.60;;;4.40;;
34928;SDS011;21133;48.048;7.724;2023-06-10T06:18:01;4.93;;;4.53;;
34928;SDS011;21133;48.048;7.724;2023-06-10T06:20:27;4.80;;;4.50;;
34928;SDS011;21133;48.048;7.724;2023-06-10T06:22:53;5.37;;;4.70;;
34928;SDS011;21133;48.048;7.724;2023-06-10T06:25:19;4.20;;;4.10;;
34928;SDS011;21133;48.048;7.724;2023-06-10T06:30:49;4.23;;;4.13;;
34928;SDS011;21133;48.048;7.724;2023-06-10T06:33:14;4.80;;;4.37;;
34928;SDS011;21133;48.048;7.724;2023-06-10T06:35:40;4.20;;;3.93;;
34928;SDS011;21133;48.048;7.724;2023-06-10T06:38:06;3.57;;;3.47;;
34928;SDS011;21133;48.048;7.724;2023-06-10T06:40:32;4.03;;;3.83;;
34928;SDS011;21133;48.048;7.724;2023-06-10T06:42:58;4.40;;;4.20;;
34928;SDS011;21133;48.048;7.724;2023-06-10T06:45:24;4.37;;;4.03;;
34928;SDS011;21133;48.048;7.724;2023-06-10T06:47:50;4.03;;;3.93;;
34928;SDS011;21133;48.048;7.724;2023-06-10T06:50:16;4.67;;;4.33;;
34928;SDS011;21133;48.048;7.724;2023-06-10T06:52:42;5.07;;;4.77;;
34928;SDS011;21133;48.048;7.724;2023-06-10T06:55:08;4.87;;;4.77;;
34928;SDS011;21133;48.048;7.724;2023-06-10T06:57:34;4.10;;;3.90;;
34928;SDS011;21133;48.048;7.724;2023-06-10T07:00:01;4.73;;;4.53;;
34928;SDS011;21133;48.048;7.724;2023-06-10T07:02:27;5.23;;;4.27;;
34928;SDS011;21133;48.048;7.724;2023-06-10T07:04:53;15.50;;;5.20;;
34928;SDS011;21133;48.048;7.724;2023-06-10T07:07:21;4.27;;;4.10;;
34928;SDS011;21133;48.048;7.724;2023-06-10T07:09:46;3.87;;;3.80;;
34928;SDS011;21133;48.048;7.724;2023-06-10T07:12:12;4.43;;;4.33;;
34928;SDS011;21133;48.048;7.724;2023-06-10T07:14:38;4.20;;;3.90;;
34928;SDS011;21133;48.048;7.724;2023-06-10T07:17:04;7.27;;;4.33;;
34928;SDS011;21133;48.048;7.724;2023-06-10T07:19:30;4.07;;;3.83;;
34928;SDS011;21133;48.048;7.724;2023-06-10T07:21:56;4.97;;;4.77;;
34928;SDS011;21133;48.048;7.724;2023-06-10T07:24:22;4.43;;;4.23;;
34928;SDS011;21133;48.048;7.724;2023-06-10T07:26:48;4.23;;;3.90;;
34928;SDS011;21133;48.048;7.724;2023-06-10T07:29:14;4.77;;;4.57;;
34928;SDS011;21133;48.048;7.724;2023-06-10T07:31:41;4.63;;;4.23;;
34928;SDS011;21133;48.048;7.724;2023-06-10T07:34:07;4.57;;;4.17;;
34928;SDS011;21133;48.048;7.724;2023-06-10T07:36:33;4.60;;;4.40;;
34928;SDS011;21133;48.048;7.724;2023-06-10T07:38:59;4.53;;;4.37;;
34928;SDS011;21133;48.048;7.724;2023-06-10T07:41:25;4.30;;;4.10;;
34928;SDS011;21133;48.048;7.724;2023-06-10T07:43:52;7.50;;;4.68;;
34928;SDS011;21133;48.048;7.724;2023-06-10T07:46:22;4.43;;;4.30;;
34928;SDS011;21133;48.048;7.724;2023-06-10T07:48:49;5.00;;;4.80;;
34928;SDS011;21133;48.048;7.724;2023-06-10T07:51:15;5.23;;;4.90;;
34928;SDS011;21133;48.048;7.724;2023-06-10T07:53:42;5.00;;;4.70;;
34928;SDS011;21133;48.048;7.724;2023-06-10T07:56:08;5.23;;;4.87;;
34928;SDS011;21133;48.048;7.724;2023-06-10T07:58:34;5.60;;;5.30;;
34928;SDS011;21133;48.048;7.724;2023-06-10T08:01:00;9.10;;;5.97;;
34928;SDS011;21133;48.048;7.724;2023-06-10T08:03:26;5.70;;;5.37;;
34928;SDS011;21133;48.048;7.724;2023-06-10T08:05:52;5.10;;;4.80;;
34928;SDS011;21133;48.048;7.724;2023-06-10T08:08:18;6.97;;;4.10;;
34928;SDS011;21133;48.048;7.724;2023-06-10T08:10:43;6.47;;;6.03;;
34928;SDS011;21133;48.048;7.724;2023-06-10T08:13:09;5.60;;;5.30;;
34928;SDS011;21133;48.048;7.724;2023-06-10T08:15:35;4.93;;;4.63;;
34928;SDS011;21133;48.048;7.724;2023-06-10T08:18:01;5.40;;;5.10;;
34928;SDS011;21133;48.048;7.724;2023-06-10T08:20:27;5.13;;;5.03;;
34928;SDS011;21133;48.048;7.724;2023-06-10T08:22:53;5.43;;;5.00;;
34928;SDS011;21133;48.048;7.724;2023-06-10T08:25:19;5.80;;;5.43;;
34928;SDS011;21133;48.048;7.724;2023-06-10T08:27:47;4.87;;;4.67;;
34928;SDS011;21133;48.048;7.724;2023-06-10T08:30:13;6.23;;;5.77;;
34928;SDS011;21133;48.048;7.724;2023-06-10T08:32:39;4.80;;;4.60;;
34928;SDS011;21133;48.048;7.724;2023-06-10T08:35:05;5.80;;;5.53;;
34928;SDS011;21133;48.048;7.724;2023-06-10T08:37:31;9.93;;;5.57;;
34928;SDS011;21133;48.048;7.724;2023-06-10T08:39:57;5.53;;;5.33;;
34928;SDS011;21133;48.048;7.724;2023-06-10T08:42:24;5.23;;;5.03;;
34928;SDS011;21133;48.048;7.724;2023-06-10T08:44:54;4.80;;;4.60;;
34928;SDS011;21133;48.048;7.724;2023-06-10T08:47:22;8.63;;;4.73;;
34928;SDS011;21133;48.048;7.724;2023-06-10T08:49:48;7.23;;;5.60;;
34928;SDS011;21133;48.048;7.724;2023-06-10T08:52:15;5.07;;;4.70;;
34928;SDS011;21133;48.048;7.724;2023-06-10T08:54:42;5.30;;;5.00;;
34928;SDS011;21133;48.048;7.724;2023-06-10T08:57:08;5.90;;;5.60;;
34928;SDS011;21133;48.048;7.724;2023-06-10T08:59:34;5.10;;;4.90;;
34928;SDS011;21133;48.048;7.724;2023-06-10T09:02:00;6.30;;;5.80;;
34928;SDS011;21133;48.048;7.724;2023-06-10T09:04:27;4.13;;;4.03;;
34928;SDS011;21133;48.048;7.724;2023-06-10T09:06:54;6.00;;;5.50;;
34928;SDS011;21133;48.048;7.724;2023-06-10T09:09:22;5.57;;;5.37;;
34928;SDS011;21133;48.048;7.724;2023-06-10T09:11:48;6.23;;;5.93;;
34928;SDS011;21133;48.048;7.724;2023-06-10T09:14:14;6.60;;;6.30;;
34928;SDS011;21133;48.048;7.724;2023-06-10T09:16:41;7.30;;;5.43;;
34928;SDS011;21133;48.048;7.724;2023-06-10T09:19:08;4.90;;;4.80;;
34928;SDS011;21133;48.048;7.724;2023-06-10T09:21:34;6.40;;;6.00;;
34928;SDS011;21133;48.048;7.724;2023-06-10T09:24:03;6.37;;;5.97;;
34928;SDS011;21133;48.048;7.724;2023-06-10T09:26:30;18.93;;;6.73;;
34928;SDS011;21133;48.048;7.724;2023-06-10T09:29:03;5.40;;;5.10;;
34928;SDS011;21133;48.048;7.724;2023-06-10T09:31:30;6.57;;;6.27;;
34928;SDS011;21133;48.048;7.724;2023-06-10T09:34:04;5.13;;;4.87;;
34928;SDS011;21133;48.048;7.724;2023-06-10T09:36:30;3.43;;;3.30;;
34928;SDS011;21133;48.048;7.724;2023-06-10T09:38:56;7.67;;;5.63;;
34928;SDS011;21133;48.048;7.724;2023-06-10T09:41:27;13.70;;;6.43;;
34928;SDS011;21133;48.048;7.724;2023-06-10T09:43:57;6.30;;;5.97;;
34928;SDS011;21133;48.048;7.724;2023-06-10T09:46:23;6.73;;;6.43;;
34928;SDS011;21133;48.048;7.724;2023-06-10T09:48:49;8.03;;;5.17;;
34928;SDS011;21133;48.048;7.724;2023-06-10T09:51:15;7.27;;;5.90;;
34928;SDS011;21133;48.048;7.724;2023-06-10T09:53:47;4.47;;;4.37;;
34928;SDS011;21133;48.048;7.724;2023-06-10T09:56:15;5.97;;;5.47;;
34928;SDS011;21133;48.048;7.724;2023-06-10T09:58:41;5.73;;;5.43;;
34928;SDS011;21133;48.048;7.724;2023-06-10T10:01:09;6.10;;;5.77;;
34928;SDS011;21133;48.048;7.724;2023-06-10T10:06:11;6.00;;;5.70;;
34928;SDS011;21133;48.048;7.724;2023-06-10T10:08:37;6.13;;;5.50;;
34928;SDS011;21133;48.048;7.724;2023-06-10T10:11:03;7.13;;;5.27;;
34928;SDS011;21133;48.048;7.724;2023-06-10T10:13:29;4.93;;;4.77;;
34928;SDS011;21133;48.048;7.724;2023-06-10T10:15:59;6.60;;;6.20;;
34928;SDS011;21133;48.048;7.724;2023-06-10T10:18:28;5.93;;;5.60;;
34928;SDS011;21133;48.048;7.724;2023-06-10T10:20:55;6.63;;;6.27;;
34928;SDS011;21133;48.048;7.724;2023-06-10T10:23:27;6.97;;;6.60;;
34928;SDS011;21133;48.048;7.724;2023-06-10T10:25:55;4.37;;;4.07;;
34928;SDS011;21133;48.048;7.724;2023-06-10T10:28:24;5.30;;;4.87;;
34928;SDS011;21133;48.048;7.724;2023-06-10T10:30:52;6.50;;;6.30;;
34928;SDS011;21133;48.048;7.724;2023-06-10T10:33:19;5.87;;;5.60;;
34928;SDS011;21133;48.048;7.724;2023-06-10T10:35:47;6.57;;;5.93;;
34928;SDS011;21133;48.048;7.724;2023-06-10T10:38:13;7.33;;;5.33;;
34928;SDS011;21133;48.048;7.724;2023-06-10T10:40:39;5.87;;;5.53;;
34928;SDS011;21133;48.048;7.724;2023-06-10T10:43:06;5.13;;;4.93;;
34928;SDS011;21133;48.048;7.724;2023-06-10T10:45:33;5.70;;;5.20;;
34928;SDS011;21133;48.048;7.724;2023-06-10T10:48:04;4.50;;;4.30;;
34928;SDS011;21133;48.048;7.724;2023-06-10T10:50:30;3.70;;;3.60;;
34928;SDS011;21133;48.048;7.724;2023-06-10T10:53:02;5.90;;;5.57;;
34928;SDS011;21133;48.048;7.724;2023-06-10T10:55:28;5.50;;;5.20;;
34928;SDS011;21133;48.048;7.724;2023-06-10T10:57:55;7.10;;;5.43;;
34928;SDS011;21133;48.048;7.724;2023-06-10T11:00:28;6.03;;;5.77;;
34928;SDS011;21133;48.048;7.724;2023-06-10T11:02:58;5.50;;;5.30;;
34928;SDS011;21133;48.048;7.724;2023-06-10T11:05:31;5.03;;;4.93;;
34928;SDS011;21133;48.048;7.724;2023-06-10T11:11:00;5.40;;;5.20;;
34928;SDS011;21133;48.048;7.724;2023-06-10T11:13:42;5.23;;;5.00;;
34928;SDS011;21133;48.048;7.724;2023-06-10T11:16:23;9.60;;;6.23;;
34928;SDS011;21133;48.048;7.724;2023-06-10T11:18:53;4.80;;;4.60;;
34928;SDS011;21133;48.048;7.724;2023-06-10T11:21:19;4.60;;;4.40;;
34928;SDS011;21133;48.048;7.724;2023-06-10T11:23:45;5.50;;;5.30;;
34928;SDS011;21133;48.048;7.724;2023-06-10T11:28:41;5.03;;;4.80;;
34928;SDS011;21133;48.048;7.724;2023-06-10T11:31:09;6.30;;;5.27;;
34928;SDS011;21133;48.048;7.724;2023-06-10T11:33:37;5.63;;;5.43;;
34928;SDS011;21133;48.048;7.724;2023-06-10T11:36:06;8.07;;;4.57;;
34928;SDS011;21133;48.048;7.724;2023-06-10T11:38:32;5.27;;;4.97;;
34928;SDS011;21133;48.048;7.724;2023-06-10T11:40:58;9.07;;;5.40;;
34928;SDS011;21133;48.048;7.724;2023-06-10T11:43:25;4.07;;;3.97;;
34928;SDS011;21133;48.048;7.724;2023-06-10T11:45:53;5.80;;;5.50;;
34928;SDS011;21133;48.048;7.724;2023-06-10T11:48:21;4.70;;;4.50;;
34928;SDS011;21133;48.048;7.724;2023-06-10T11:50:47;3.80;;;3.60;;
34928;SDS011;21133;48.048;7.724;2023-06-10T11:53:13;5.07;;;4.77;;
34928;SDS011;21133;48.048;7.724;2023-06-10T11:55:42;4.83;;;4.63;;
34928;SDS011;21133;48.048;7.724;2023-06-10T11:58:12;3.90;;;3.80;;
34928;SDS011;21133;48.048;7.724;2023-06-10T12:00:47;3.37;;;3.37;;
34928;SDS011;21133;48.048;7.724;2023-06-10T12:03:13;5.10;;;4.90;;
34928;SDS011;21133;48.048;7.724;2023-06-10T12:05:40;5.53;;;5.23;;
34928;SDS011;21133;48.048;7.724;2023-06-10T12:08:12;4.90;;;4.60;;
34928;SDS011;21133;48.048;7.724;2023-06-10T12:10:39;3.23;;;3.13;;
34928;SDS011;21133;48.048;7.724;2023-06-10T12:13:06;5.33;;;5.13;;
34928;SDS011;21133;48.048;7.724;2023-06-10T12:15:32;4.83;;;4.73;;
34928;SDS011;21133;48.048;7.724;2023-06-10T12:17:58;5.47;;;4.93;;
34928;SDS011;21133;48.048;7.724;2023-06-10T12:20:25;4.90;;;4.50;;
34928;SDS011;21133;48.048;7.724;2023-06-10T12:22:52;4.90;;;4.60;;
34928;SDS011;21133;48.048;7.724;2023-06-10T12:25:24;9.07;;;5.60;;
34928;SDS011;21133;48.048;7.724;2023-06-10T12:27:51;4.70;;;4.40;;
34928;SDS011;21133;48.048;7.724;2023-06-10T12:30:22;5.30;;;4.87;;
34928;SDS011;21133;48.048;7.724;2023-06-10T12:32:48;4.40;;;4.30;;
34928;SDS011;21133;48.048;7.724;2023-06-10T12:35:18;4.60;;;4.40;;
34928;SDS011;21133;48.048;7.724;2023-06-10T12:38:05;5.17;;;4.80;;
34928;SDS011;21133;48.048;7.724;2023-06-10T12:40:36;4.70;;;4.57;;
34928;SDS011;21133;48.048;7.724;2023-06-10T12:43:05;4.93;;;4.73;;
34928;SDS011;21133;48.048;7.724;2023-06-10T12:45:32;5.17;;;4.83;;
34928;SDS011;21133;48.048;7.724;2023-06-10T12:48:05;4.53;;;4.43;;
34928;SDS011;21133;48.048;7.724;2023-06-10T12:50:34;5.83;;;5.30;;
34928;SDS011;21133;48.048;7.724;2023-06-10T12:53:00;5.30;;;5.10;;
34928;SDS011;21133;48.048;7.724;2023-06-10T12:55:26;4.60;;;4.40;;
34928;SDS011;21133;48.048;7.724;2023-06-10T12:57:53;4.90;;;4.50;;
34928;SDS011;21133;48.048;7.724;2023-06-10T13:00:20;4.97;;;4.60;;
34928;SDS011;21133;48.048;7.724;2023-06-10T13:02:47;4.60;;;4.40;;
34928;SDS011;21133;48.048;7.724;2023-06-10T13:05:13;5.60;;;5.30;;
34928;SDS011;21133;48.048;7.724;2023-06-10T13:07:39;4.40;;;4.20;;
34928;SDS011;21133;48.048;7.724;2023-06-10T13:10:06;4.77;;;4.57;;
34928;SDS011;21133;48.048;7.724;2023-06-10T13:12:33;4.10;;;4.00;;
34928;SDS011;21133;48.048;7.724;2023-06-10T13:14:58;4.53;;;3.97;;
34928;SDS011;21133;48.048;7.724;2023-06-10T13:17:25;4.40;;;4.30;;
34928;SDS011;21133;48.048;7.724;2023-06-10T13:19:51;4.47;;;4.07;;
34928;SDS011;21133;48.048;7.724;2023-06-10T13:22:17;4.50;;;3.70;;
34928;SDS011;21133;48.048;7.724;2023-06-10T13:24:45;4.77;;;4.57;;
34928;SDS011;21133;48.048;7.724;2023-06-10T13:27:11;4.70;;;4.50;;
34928;SDS011;21133;48.048;7.724;2023-06-10T13:29:39;3.33;;;3.23;;
34928;SDS011;21133;48.048;7.724;2023-06-10T13:32:05;4.53;;;3.80;;
34928;SDS011;21133;48.048;7.724;2023-06-10T13:34:31;3.33;;;3.33;;
34928;SDS011;21133;48.048;7.724;2023-06-10T13:36:57;4.73;;;4.10;;
34928;SDS011;21133;48.048;7.724;2023-06-10T13:39:24;3.90;;;3.80;;
34928;SDS011;21133;48.048;7.724;2023-06-10T13:41:50;3.30;;;3.20;;
34928;SDS011;21133;48.048;7.724;2023-06-10T13:44:17;6.40;;;3.33;;
34928;SDS011;21133;48.048;7.724;2023-06-10T13:46:43;3.30;;;3.10;;
34928;SDS011;21133;48.048;7.724;2023-06-10T13:49:08;3.80;;;3.70;;
34928;SDS011;21133;48.048;7.724;2023-06-10T13:51:34;3.73;;;3.53;;
34928;SDS011;21133;48.048;7.724;2023-06-10T13:54:00;3.30;;;3.17;;
34928;SDS011;21133;48.048;7.724;2023-06-10T13:56:26;3.97;;;3.77;;
34928;SDS011;21133;48.048;7.724;2023-06-10T13:58:53;3.20;;;3.20;;
34928;SDS011;21133;48.048;7.724;2023-06-10T14:01:19;3.47;;;3.27;;
34928;SDS011;21133;48.048;7.724;2023-06-10T14:03:45;3.10;;;3.03;;
34928;SDS011;21133;48.048;7.724;2023-06-10T14:06:11;3.87;;;3.67;;
34928;SDS011;21133;48.048;7.724;2023-06-10T14:08:43;3.50;;;3.40;;
34928;SDS011;21133;48.048;7.724;2023-06-10T14:11:10;3.33;;;3.23;;
34928;SDS011;21133;48.048;7.724;2023-06-10T14:13:36;3.53;;;3.53;;
34928;SDS011;21133;48.048;7.724;2023-06-10T14:16:03;3.97;;;3.87;;
34928;SDS011;21133;48.048;7.724;2023-06-10T14:18:30;3.90;;;3.80;;
34928;SDS011;21133;48.048;7.724;2023-06-10T14:20:56;3.40;;;3.40;;
34928;SDS011;21133;48.048;7.724;2023-06-10T14:23:22;4.13;;;4.03;;
34928;SDS011;21133;48.048;7.724;2023-06-10T14:25:49;3.53;;;3.40;;
34928;SDS011;21133;48.048;7.724;2023-06-10T14:28:15;3.30;;;3.20;;
34928;SDS011;21133;48.048;7.724;2023-06-10T14:30:41;3.87;;;3.67;;
34928;SDS011;21133;48.048;7.724;2023-06-10T14:33:07;9.00;;;3.80;;
34928;SDS011;21133;48.048;7.724;2023-06-10T14:35:33;3.57;;;3.47;;
34928;SDS011;21133;48.048;7.724;2023-06-10T14:37:59;3.27;;;3.07;;
34928;SDS011;21133;48.048;7.724;2023-06-10T14:40:25;6.70;;;3.70;;
34928;SDS011;21133;48.048;7.724;2023-06-10T14:42:53;2.87;;;2.87;;
34928;SDS011;21133;48.048;7.724;2023-06-10T14:45:19;2.50;;;2.50;;
34928;SDS011;21133;48.048;7.724;2023-06-10T14:47:45;2.93;;;2.93;;
34928;SDS011;21133;48.048;7.724;2023-06-10T14:50:12;3.37;;;3.27;;
34928;SDS011;21133;48.048;7.724;2023-06-10T14:52:38;3.03;;;2.93;;
34928;SDS011;21133;48.048;7.724;2023-06-10T14:55:04;3.17;;;3.07;;
34928;SDS011;21133;48.048;7.724;2023-06-10T14:57:30;3.50;;;3.30;;
34928;SDS011;21133;48.048;7.724;2023-06-10T14:59:56;3.60;;;3.07;;
34928;SDS011;21133;48.048;7.724;2023-06-10T15:02:22;3.30;;;3.30;;
34928;SDS011;21133;48.048;7.724;2023-06-10T15:04:48;3.60;;;3.50;;
34928;SDS011;21133;48.048;7.724;2023-06-10T15:07:14;4.93;;;2.97;;